sensor_id;sensor_type;location;lat;lon;timestamp;pressure;altitude;pressure_sealevel;temperature;humidity
12213;BME280;6169;44.158;22.788;2024-01-11T00:02:40;102534.53;;;-7.91;46.93
12213;BME280;6169;44.158;22.788;2024-01-11T00:07:42;102521.53;;;-8.13;48.67
12213;BME280;6169;44.158;22.788;2024-01-11T00:12:46;102521.38;;;-7.93;47.67
12213;BME280;6169;44.158;22.788;2024-01-11T00:17:48;102516.72;;;-8.05;48.23
12213;BME280;6169;44.158;22.788;2024-01-11T00:22:50;102512.72;;;-8.31;47.79
12213;BME280;6169;44.158;22.788;2024-01-11T00:27:54;102514.94;;;-8.05;47.91
12213;BME280;6169;44.158;22.788;2024-01-11T00:32:56;102501.13;;;-8.29;48.80
12213;BME280;6169;44.158;22.788;2024-01-11T00:37:58;102498.47;;;-8.46;50.41
12213;BME280;6169;44.158;22.788;2024-01-11T00:43:01;102509.47;;;-8.01;48.54
12213;BME280;6169;44.158;22.788;2024-01-11T00:48:04;102495.81;;;-8.46;49.33
12213;BME280;6169;44.158;22.788;2024-01-11T00:53:06;102497.50;;;-8.62;50.41
12213;BME280;6169;44.158;22.788;2024-01-11T00:58:10;102482.56;;;-8.44;48.05
12213;BME280;6169;44.158;22.788;2024-01-11T01:03:12;102473.47;;;-8.39;49.68
12213;BME280;6169;44.158;22.788;2024-01-11T01:08:15;102463.59;;;-8.35;50.58
12213;BME280;6169;44.158;22.788;2024-01-11T01:13:18;102445.31;;;-8.40;49.41
12213;BME280;6169;44.158;22.788;2024-01-11T01:18:20;102442.28;;;-8.67;50.51
12213;BME280;6169;44.158;22.788;2024-01-11T01:23:22;102449.59;;;-8.55;50.66
12213;BME280;6169;44.158;22.788;2024-01-11T01:28:26;102431.66;;;-8.13;50.58
12213;BME280;6169;44.158;22.788;2024-01-11T01:33:28;102432.50;;;-7.62;49.38
12213;BME280;6169;44.158;22.788;2024-01-11T01:38:30;102435.91;;;-7.60;49.82
12213;BME280;6169;44.158;22.788;2024-01-11T01:43:33;102421.44;;;-7.37;48.69
12213;BME280;6169;44.158;22.788;2024-01-11T01:48:36;102419.03;;;-7.42;48.06
12213;BME280;6169;44.158;22.788;2024-01-11T01:53:39;102420.72;;;-7.56;48.75
12213;BME280;6169;44.158;22.788;2024-01-11T01:58:43;102421.13;;;-7.97;48.45
12213;BME280;6169;44.158;22.788;2024-01-11T02:03:45;102413.81;;;-7.92;47.70
12213;BME280;6169;44.158;22.788;2024-01-11T02:08:49;102413.06;;;-8.12;48.42
12213;BME280;6169;44.158;22.788;2024-01-11T02:13:55;102400.00;;;-8.32;48.42
12213;BME280;6169;44.158;22.788;2024-01-11T02:18:58;102391.69;;;-8.24;48.10
12213;BME280;6169;44.158;22.788;2024-01-11T02:24:04;102400.88;;;-7.81;47.52
12213;BME280;6169;44.158;22.788;2024-01-11T02:29:07;102391.00;;;-8.11;46.78
12213;BME280;6169;44.158;22.788;2024-01-11T02:34:10;102384.94;;;-8.30;47.54
12213;BME280;6169;44.158;22.788;2024-01-11T02:39:16;102380.53;;;-8.47;49.53
12213;BME280;6169;44.158;22.788;2024-01-11T02:44:18;102377.31;;;-8.54;48.72
12213;BME280;6169;44.158;22.788;2024-01-11T02:49:20;102371.13;;;-8.53;48.55
12213;BME280;6169;44.158;22.788;2024-01-11T02:54:24;102369.16;;;-8.49;48.69
12213;BME280;6169;44.158;22.788;2024-01-11T02:59:26;102372.44;;;-8.61;49.23
12213;BME280;6169;44.158;22.788;2024-01-11T03:04:28;102367.06;;;-8.42;48.86
12213;BME280;6169;44.158;22.788;2024-01-11T03:09:31;102369.69;;;-8.42;48.63
12213;BME280;6169;44.158;22.788;2024-01-11T03:14:34;102363.19;;;-8.35;48.90
12213;BME280;6169;44.158;22.788;2024-01-11T03:19:39;102360.94;;;-8.60;48.22
12213;BME280;6169;44.158;22.788;2024-01-11T03:24:43;102360.31;;;-8.65;48.43
12213;BME280;6169;44.158;22.788;2024-01-11T03:29:45;102343.44;;;-8.63;47.89
12213;BME280;6169;44.158;22.788;2024-01-11T03:34:47;102343.13;;;-8.74;48.61
12213;BME280;6169;44.158;22.788;2024-01-11T03:39:50;102339.69;;;-8.94;48.08
12213;BME280;6169;44.158;22.788;2024-01-11T03:44:52;102324.00;;;-9.14;48.20
12213;BME280;6169;44.158;22.788;2024-01-11T03:49:55;102331.09;;;-8.97;49.37
12213;BME280;6169;44.158;22.788;2024-01-11T03:54:58;102326.97;;;-8.51;47.82
12213;BME280;6169;44.158;22.788;2024-01-11T04:00:00;102320.31;;;-8.93;47.62
12213;BME280;6169;44.158;22.788;2024-01-11T04:05:03;102314.53;;;-9.18;48.23
12213;BME280;6169;44.158;22.788;2024-01-11T04:10:07;102304.47;;;-8.93;46.27
12213;BME280;6169;44.158;22.788;2024-01-11T04:15:12;102300.56;;;-8.85;46.52
12213;BME280;6169;44.158;22.788;2024-01-11T04:20:14;102265.16;;;-9.16;45.86
12213;BME280;6169;44.158;22.788;2024-01-11T04:25:18;102296.69;;;-8.78;45.58
12213;BME280;6169;44.158;22.788;2024-01-11T04:30:21;102294.06;;;-8.78;44.79
12213;BME280;6169;44.158;22.788;2024-01-11T04:35:23;102281.75;;;-9.31;47.07
12213;BME280;6169;44.158;22.788;2024-01-11T04:40:26;102281.56;;;-9.09;47.41
12213;BME280;6169;44.158;22.788;2024-01-11T04:45:28;102273.84;;;-9.31;47.92
12213;BME280;6169;44.158;22.788;2024-01-11T04:50:30;102264.75;;;-9.43;46.89
12213;BME280;6169;44.158;22.788;2024-01-11T04:55:34;102268.09;;;-9.22;47.15
12213;BME280;6169;44.158;22.788;2024-01-11T05:00:36;102264.16;;;-9.13;47.10
12213;BME280;6169;44.158;22.788;2024-01-11T05:05:38;102266.63;;;-9.10;47.08
12213;BME280;6169;44.158;22.788;2024-01-11T05:10:41;102259.03;;;-9.17;47.35
12213;BME280;6169;44.158;22.788;2024-01-11T05:15:45;102254.91;;;-8.87;46.96
12213;BME280;6169;44.158;22.788;2024-01-11T05:20:47;102252.91;;;-9.17;49.05
12213;BME280;6169;44.158;22.788;2024-01-11T05:25:51;102259.19;;;-8.67;48.78
12213;BME280;6169;44.158;22.788;2024-01-11T05:30:53;102253.41;;;-8.58;55.66
12213;BME280;6169;44.158;22.788;2024-01-11T05:35:55;102243.88;;;-8.12;54.62
12213;BME280;6169;44.158;22.788;2024-01-11T05:40:59;102225.81;;;-8.19;54.31
12213;BME280;6169;44.158;22.788;2024-01-11T05:46:01;102231.06;;;-8.35;52.36
12213;BME280;6169;44.158;22.788;2024-01-11T05:51:04;102223.06;;;-8.18;51.76
12213;BME280;6169;44.158;22.788;2024-01-11T05:56:10;102223.06;;;-8.18;53.77
12213;BME280;6169;44.158;22.788;2024-01-11T06:01:12;102225.03;;;-8.06;53.82
12213;BME280;6169;44.158;22.788;2024-01-11T06:06:15;102223.31;;;-8.07;53.35
12213;BME280;6169;44.158;22.788;2024-01-11T06:11:18;102218.03;;;-7.91;54.78
12213;BME280;6169;44.158;22.788;2024-01-11T06:16:20;102209.53;;;-7.80;54.44
12213;BME280;6169;44.158;22.788;2024-01-11T06:21:22;102205.69;;;-8.22;55.31
12213;BME280;6169;44.158;22.788;2024-01-11T06:26:26;102205.88;;;-8.42;55.51
12213;BME280;6169;44.158;22.788;2024-01-11T06:31:28;102193.81;;;-7.99;54.94
12213;BME280;6169;44.158;22.788;2024-01-11T06:36:30;102199.25;;;-7.70;54.52
12213;BME280;6169;44.158;22.788;2024-01-11T06:41:34;102201.41;;;-7.77;55.25
12213;BME280;6169;44.158;22.788;2024-01-11T06:46:36;102199.06;;;-7.51;54.70
12213;BME280;6169;44.158;22.788;2024-01-11T06:51:39;102200.72;;;-7.34;54.30
12213;BME280;6169;44.158;22.788;2024-01-11T06:56:43;102205.09;;;-6.89;53.02
12213;BME280;6169;44.158;22.788;2024-01-11T07:01:45;102205.66;;;-6.84;52.95
12213;BME280;6169;44.158;22.788;2024-01-11T07:06:47;102208.53;;;-6.58;53.25
12213;BME280;6169;44.158;22.788;2024-01-11T07:11:51;102204.53;;;-6.80;54.05
12213;BME280;6169;44.158;22.788;2024-01-11T07:16:53;102181.31;;;-7.05;55.11
12213;BME280;6169;44.158;22.788;2024-01-11T07:21:55;102191.06;;;-6.91;53.68
12213;BME280;6169;44.158;22.788;2024-01-11T07:26:59;102189.13;;;-7.32;53.91
12213;BME280;6169;44.158;22.788;2024-01-11T07:32:01;102174.06;;;-6.87;53.60
12213;BME280;6169;44.158;22.788;2024-01-11T07:37:04;102164.94;;;-7.11;54.32
12213;BME280;6169;44.158;22.788;2024-01-11T07:42:08;102110.56;;;-7.03;53.64
12213;BME280;6169;44.158;22.788;2024-01-11T07:47:10;102158.53;;;-6.36;52.76
12213;BME280;6169;44.158;22.788;2024-01-11T07:52:12;102165.00;;;-6.13;51.94
12213;BME280;6169;44.158;22.788;2024-01-11T07:57:16;102156.25;;;-6.01;53.37
12213;BME280;6169;44.158;22.788;2024-01-11T08:02:19;102145.50;;;-6.12;53.16
12213;BME280;6169;44.158;22.788;2024-01-11T08:07:21;102147.13;;;-5.69;52.84
12213;BME280;6169;44.158;22.788;2024-01-11T08:12:24;102137.41;;;-5.96;54.34
12213;BME280;6169;44.158;22.788;2024-01-11T08:17:26;102128.97;;;-5.23;52.65
12213;BME280;6169;44.158;22.788;2024-01-11T08:22:29;102121.28;;;-5.53;52.34
12213;BME280;6169;44.158;22.788;2024-01-11T08:27:35;102110.19;;;-5.07;52.83
12213;BME280;6169;44.158;22.788;2024-01-11T08:32:37;102084.03;;;-5.13;52.87
12213;BME280;6169;44.158;22.788;2024-01-11T08:37:42;102095.16;;;-4.82;53.38
12213;BME280;6169;44.158;22.788;2024-01-11T08:42:45;102088.34;;;-4.74;53.54
12213;BME280;6169;44.158;22.788;2024-01-11T08:47:48;101973.50;;;-5.40;54.79
12213;BME280;6169;44.158;22.788;2024-01-11T08:52:50;102070.16;;;-4.30;55.49
12213;BME280;6169;44.158;22.788;2024-01-11T08:57:53;102069.19;;;-4.29;55.12
12213;BME280;6169;44.158;22.788;2024-01-11T09:02:56;102068.56;;;-3.85;54.82
12213;BME280;6169;44.158;22.788;2024-01-11T09:07:58;102051.13;;;-3.42;53.25
12213;BME280;6169;44.158;22.788;2024-01-11T09:13:01;102049.09;;;-3.16;52.43
12213;BME280;6169;44.158;22.788;2024-01-11T09:18:04;102028.63;;;-3.27;53.33
12213;BME280;6169;44.158;22.788;2024-01-11T09:23:06;102015.25;;;-2.71;52.55
12213;BME280;6169;44.158;22.788;2024-01-11T09:28:10;101993.00;;;-2.37;51.93
12213;BME280;6169;44.158;22.788;2024-01-11T09:33:12;101987.03;;;-2.30;51.03
12213;BME280;6169;44.158;22.788;2024-01-11T09:38:14;101976.41;;;-1.88;49.59
12213;BME280;6169;44.158;22.788;2024-01-11T09:43:17;101969.66;;;-1.40;47.24
12213;BME280;6169;44.158;22.788;2024-01-11T09:48:20;101956.28;;;-1.40;46.87
12213;BME280;6169;44.158;22.788;2024-01-11T09:53:24;101942.91;;;-1.40;47.43
12213;BME280;6169;44.158;22.788;2024-01-11T09:58:29;101935.09;;;-1.32;46.99
12213;BME280;6169;44.158;22.788;2024-01-11T10:03:32;101927.50;;;-0.67;46.50
12213;BME280;6169;44.158;22.788;2024-01-11T10:08:34;101926.78;;;-0.69;46.01
12213;BME280;6169;44.158;22.788;2024-01-11T10:13:37;101916.22;;;-0.42;45.85
12213;BME280;6169;44.158;22.788;2024-01-11T10:18:39;101908.19;;;-0.51;45.56
12213;BME280;6169;44.158;22.788;2024-01-11T10:23:41;101887.00;;;0.14;45.17
12213;BME280;6169;44.158;22.788;2024-01-11T10:28:46;101892.41;;;-0.54;45.75
12213;BME280;6169;44.158;22.788;2024-01-11T10:33:48;101882.16;;;-0.49;46.06
12213;BME280;6169;44.158;22.788;2024-01-11T10:38:53;101866.75;;;-0.08;45.57
12213;BME280;6169;44.158;22.788;2024-01-11T10:43:59;101854.19;;;0.02;45.51
12213;BME280;6169;44.158;22.788;2024-01-11T10:49:04;101843.69;;;-0.39;45.50
12213;BME280;6169;44.158;22.788;2024-01-11T10:54:07;101840.88;;;0.20;44.94
12213;BME280;6169;44.158;22.788;2024-01-11T10:59:11;101818.81;;;0.36;44.24
12213;BME280;6169;44.158;22.788;2024-01-11T11:04:15;101801.59;;;0.38;44.58
12213;BME280;6169;44.158;22.788;2024-01-11T11:09:17;101791.16;;;0.35;45.79
12213;BME280;6169;44.158;22.788;2024-01-11T11:14:22;101792.16;;;0.97;45.06
12213;BME280;6169;44.158;22.788;2024-01-11T11:19:24;101774.69;;;0.76;44.85
12213;BME280;6169;44.158;22.788;2024-01-11T11:24:27;101760.28;;;0.94;44.47
12213;BME280;6169;44.158;22.788;2024-01-11T11:29:30;101747.72;;;1.13;44.49
12213;BME280;6169;44.158;22.788;2024-01-11T11:34:42;101737.94;;;2.32;42.64
12213;BME280;6169;44.158;22.788;2024-01-11T11:39:45;101728.44;;;2.46;42.18
12213;BME280;6169;44.158;22.788;2024-01-11T11:44:50;101718.41;;;2.06;43.08
12213;BME280;6169;44.158;22.788;2024-01-11T11:50:04;101710.22;;;2.32;43.03
12213;BME280;6169;44.158;22.788;2024-01-11T11:55:08;101694.50;;;2.45;43.39
12213;BME280;6169;44.158;22.788;2024-01-11T12:00:13;101691.69;;;2.04;42.41
12213;BME280;6169;44.158;22.788;2024-01-11T12:05:17;101679.25;;;2.62;41.07
12213;BME280;6169;44.158;22.788;2024-01-11T12:10:20;101668.44;;;3.11;39.80
12213;BME280;6169;44.158;22.788;2024-01-11T12:15:26;101669.47;;;2.61;40.55
12213;BME280;6169;44.158;22.788;2024-01-11T12:20:29;101663.19;;;3.34;39.95
12213;BME280;6169;44.158;22.788;2024-01-11T12:25:31;101640.44;;;3.45;40.05
12213;BME280;6169;44.158;22.788;2024-01-11T12:30:35;101633.59;;;3.26;39.36
12213;BME280;6169;44.158;22.788;2024-01-11T12:35:37;101618.72;;;3.86;38.91
12213;BME280;6169;44.158;22.788;2024-01-11T12:40:39;101614.59;;;3.19;38.60
12213;BME280;6169;44.158;22.788;2024-01-11T12:45:43;101602.53;;;3.07;39.23
12213;BME280;6169;44.158;22.788;2024-01-11T12:50:45;101598.22;;;2.82;39.50
12213;BME280;6169;44.158;22.788;2024-01-11T12:55:48;101589.38;;;3.60;38.36
12213;BME280;6169;44.158;22.788;2024-01-11T13:00:52;101582.25;;;2.56;39.30
12213;BME280;6169;44.158;22.788;2024-01-11T13:05:54;101572.16;;;2.58;38.90
12213;BME280;6169;44.158;22.788;2024-01-11T13:10:56;101558.22;;;2.54;39.36
12213;BME280;6169;44.158;22.788;2024-01-11T13:15:59;101562.25;;;2.66;39.38
12213;BME280;6169;44.158;22.788;2024-01-11T13:21:02;101549.31;;;2.29;39.79
12213;BME280;6169;44.158;22.788;2024-01-11T13:26:05;101524.94;;;1.98;39.51
12213;BME280;6169;44.158;22.788;2024-01-11T13:31:09;101540.75;;;2.25;40.38
12213;BME280;6169;44.158;22.788;2024-01-11T13:36:11;101539.72;;;2.10;40.08
12213;BME280;6169;44.158;22.788;2024-01-11T13:41:13;101535.69;;;2.55;39.49
12213;BME280;6169;44.158;22.788;2024-01-11T13:46:16;101526.13;;;2.52;39.95
12213;BME280;6169;44.158;22.788;2024-01-11T13:51:20;101523.88;;;2.81;38.70
12213;BME280;6169;44.158;22.788;2024-01-11T13:56:22;101526.28;;;2.67;38.88
12213;BME280;6169;44.158;22.788;2024-01-11T14:01:25;101514.31;;;3.26;37.97
12213;BME280;6169;44.158;22.788;2024-01-11T14:06:27;101509.13;;;2.77;38.65
12213;BME280;6169;44.158;22.788;2024-01-11T14:11:30;101501.09;;;2.03;38.67
12213;BME280;6169;44.158;22.788;2024-01-11T14:16:33;101504.56;;;1.12;40.92
12213;BME280;6169;44.158;22.788;2024-01-11T14:21:35;101502.94;;;1.19;41.41
12213;BME280;6169;44.158;22.788;2024-01-11T14:26:37;101507.75;;;1.07;42.27
12213;BME280;6169;44.158;22.788;2024-01-11T14:31:42;101507.53;;;1.01;41.22
12213;BME280;6169;44.158;22.788;2024-01-11T14:36:44;101507.16;;;0.87;42.17
12213;BME280;6169;44.158;22.788;2024-01-11T14:41:46;101503.03;;;1.01;40.63
12213;BME280;6169;44.158;22.788;2024-01-11T14:46:50;101503.69;;;-0.01;40.93
12213;BME280;6169;44.158;22.788;2024-01-11T14:51:52;101502.06;;;-0.30;40.99
12213;BME280;6169;44.158;22.788;2024-01-11T14:56:54;101497.13;;;0.11;40.88
12213;BME280;6169;44.158;22.788;2024-01-11T15:01:57;101504.19;;;-0.33;41.25
12213;BME280;6169;44.158;22.788;2024-01-11T15:07:00;101491.91;;;-0.54;42.79
12213;BME280;6169;44.158;22.788;2024-01-11T15:12:02;101483.13;;;-0.64;41.83
12213;BME280;6169;44.158;22.788;2024-01-11T15:17:06;101484.34;;;-1.04;41.73
12213;BME280;6169;44.158;22.788;2024-01-11T15:22:08;101476.38;;;-0.86;41.59
12213;BME280;6169;44.158;22.788;2024-01-11T15:27:12;101495.53;;;-1.18;41.70
12213;BME280;6169;44.158;22.788;2024-01-11T15:32:16;101464.38;;;-1.37;42.23
12213;BME280;6169;44.158;22.788;2024-01-11T15:37:18;101485.50;;;-1.44;43.52
12213;BME280;6169;44.158;22.788;2024-01-11T15:42:21;101475.94;;;-1.46;43.42
12213;BME280;6169;44.158;22.788;2024-01-11T15:47:26;101485.66;;;-1.65;44.76
12213;BME280;6169;44.158;22.788;2024-01-11T15:52:28;101486.69;;;-1.95;43.83
12213;BME280;6169;44.158;22.788;2024-01-11T15:57:30;101482.59;;;-1.89;43.43
12213;BME280;6169;44.158;22.788;2024-01-11T16:02:33;101483.31;;;-2.07;43.74
12213;BME280;6169;44.158;22.788;2024-01-11T16:07:35;101477.28;;;-2.09;44.19
12213;BME280;6169;44.158;22.788;2024-01-11T16:12:38;101488.09;;;-2.30;44.71
12213;BME280;6169;44.158;22.788;2024-01-11T16:17:41;101492.31;;;-1.88;43.47
12213;BME280;6169;44.158;22.788;2024-01-11T16:22:43;101483.31;;;-2.46;45.27
12213;BME280;6169;44.158;22.788;2024-01-11T16:27:45;101489.38;;;-2.24;44.65
12213;BME280;6169;44.158;22.788;2024-01-11T16:32:49;101483.03;;;-2.52;44.87
12213;BME280;6169;44.158;22.788;2024-01-11T16:37:51;101467.03;;;-2.43;45.50
12213;BME280;6169;44.158;22.788;2024-01-11T16:42:53;101472.88;;;-2.68;45.44
12213;BME280;6169;44.158;22.788;2024-01-11T16:47:57;101478.94;;;-2.76;46.07
12213;BME280;6169;44.158;22.788;2024-01-11T16:52:59;101475.63;;;-2.39;45.87
12213;BME280;6169;44.158;22.788;2024-01-11T16:58:01;101474.78;;;-3.30;47.42
12213;BME280;6169;44.158;22.788;2024-01-11T17:03:05;101424.09;;;-3.19;47.20
12213;BME280;6169;44.158;22.788;2024-01-11T17:08:07;101445.50;;;-2.90;46.16
12213;BME280;6169;44.158;22.788;2024-01-11T17:13:09;101438.34;;;-2.89;45.98
12213;BME280;6169;44.158;22.788;2024-01-11T17:18:13;101446.94;;;-2.18;44.24
12213;BME280;6169;44.158;22.788;2024-01-11T17:23:15;101443.28;;;-2.07;43.76
12213;BME280;6169;44.158;22.788;2024-01-11T17:28:17;101425.06;;;-2.50;45.21
12213;BME280;6169;44.158;22.788;2024-01-11T17:33:21;101424.47;;;-3.33;46.22
12213;BME280;6169;44.158;22.788;2024-01-11T17:38:23;101434.44;;;-3.35;46.71
12213;BME280;6169;44.158;22.788;2024-01-11T17:43:26;101429.50;;;-3.40;46.38
12213;BME280;6169;44.158;22.788;2024-01-11T17:48:30;101419.63;;;-3.18;46.50
12213;BME280;6169;44.158;22.788;2024-01-11T17:53:32;101432.03;;;-3.38;46.71
12213;BME280;6169;44.158;22.788;2024-01-11T17:58:35;101433.19;;;-3.21;46.17
12213;BME280;6169;44.158;22.788;2024-01-11T18:03:38;101431.84;;;-2.96;45.32
12213;BME280;6169;44.158;22.788;2024-01-11T18:08:40;101441.53;;;-3.36;45.85
12213;BME280;6169;44.158;22.788;2024-01-11T18:13:43;101439.22;;;-3.19;45.93
12213;BME280;6169;44.158;22.788;2024-01-11T18:18:46;101425.72;;;-3.68;46.47
12213;BME280;6169;44.158;22.788;2024-01-11T18:23:49;101423.34;;;-3.31;45.36
12213;BME280;6169;44.158;22.788;2024-01-11T18:28:51;101446.16;;;-3.07;45.52
12213;BME280;6169;44.158;22.788;2024-01-11T18:33:56;101430.69;;;-3.54;46.42
12213;BME280;6169;44.158;22.788;2024-01-11T18:38:58;101428.84;;;-3.22;45.41
12213;BME280;6169;44.158;22.788;2024-01-11T18:44:00;101436.72;;;-3.51;46.00
12213;BME280;6169;44.158;22.788;2024-01-11T18:49:04;101428.84;;;-4.26;48.34
12213;BME280;6169;44.158;22.788;2024-01-11T18:54:07;101426.31;;;-4.06;46.85
12213;BME280;6169;44.158;22.788;2024-01-11T18:59:09;101420.81;;;-4.35;47.34
12213;BME280;6169;44.158;22.788;2024-01-11T19:04:12;101406.34;;;-4.75;47.78
12213;BME280;6169;44.158;22.788;2024-01-11T19:09:15;101403.25;;;-4.06;46.63
12213;BME280;6169;44.158;22.788;2024-01-11T19:14:17;101396.69;;;-4.02;46.59
12213;BME280;6169;44.158;22.788;2024-01-11T19:19:21;101402.56;;;-3.77;45.95
12213;BME280;6169;44.158;22.788;2024-01-11T19:24:23;101415.88;;;-3.77;45.93
12213;BME280;6169;44.158;22.788;2024-01-11T19:29:25;101407.91;;;-3.37;44.07
12213;BME280;6169;44.158;22.788;2024-01-11T19:34:29;101403.31;;;-3.35;45.22
12213;BME280;6169;44.158;22.788;2024-01-11T19:39:31;101396.09;;;-3.03;44.91
12213;BME280;6169;44.158;22.788;2024-01-11T19:44:33;101397.34;;;-3.08;44.24
12213;BME280;6169;44.158;22.788;2024-01-11T19:49:37;101386.44;;;-2.85;43.94
12213;BME280;6169;44.158;22.788;2024-01-11T19:54:40;101390.25;;;-2.20;42.47
12213;BME280;6169;44.158;22.788;2024-01-11T19:59:42;101388.09;;;-2.94;42.94
12213;BME280;6169;44.158;22.788;2024-01-11T20:04:46;101385.72;;;-2.09;41.67
12213;BME280;6169;44.158;22.788;2024-01-11T20:09:51;101378.75;;;-2.49;42.10
12213;BME280;6169;44.158;22.788;2024-01-11T20:14:53;101413.41;;;-2.49;41.93
12213;BME280;6169;44.158;22.788;2024-01-11T20:19:57;101379.56;;;-2.49;42.53
12213;BME280;6169;44.158;22.788;2024-01-11T20:24:59;101392.47;;;-2.54;42.09
12213;BME280;6169;44.158;22.788;2024-01-11T20:30:01;101321.63;;;-2.86;42.49
12213;BME280;6169;44.158;22.788;2024-01-11T20:35:05;101393.50;;;-2.45;42.74
12213;BME280;6169;44.158;22.788;2024-01-11T20:40:08;101391.06;;;-2.48;43.01
12213;BME280;6169;44.158;22.788;2024-01-11T20:45:10;101377.03;;;-2.89;44.27
12213;BME280;6169;44.158;22.788;2024-01-11T20:50:14;101394.16;;;-2.63;44.44
12213;BME280;6169;44.158;22.788;2024-01-11T20:55:16;101387.31;;;-1.79;43.23
12213;BME280;6169;44.158;22.788;2024-01-11T21:00:18;101390.38;;;-2.31;44.32
12213;BME280;6169;44.158;22.788;2024-01-11T21:05:23;101393.50;;;-3.34;45.24
12213;BME280;6169;44.158;22.788;2024-01-11T21:10:26;101392.56;;;-3.14;44.79
12213;BME280;6169;44.158;22.788;2024-01-11T21:15:28;101391.59;;;-3.03;45.60
12213;BME280;6169;44.158;22.788;2024-01-11T21:20:31;101379.63;;;-3.68;46.98
12213;BME280;6169;44.158;22.788;2024-01-11T21:25:33;101378.84;;;-3.09;47.97
12213;BME280;6169;44.158;22.788;2024-01-11T21:30:36;101386.84;;;-2.31;47.00
12213;BME280;6169;44.158;22.788;2024-01-11T21:35:39;101364.25;;;-3.05;49.26
12213;BME280;6169;44.158;22.788;2024-01-11T21:40:43;101354.81;;;-3.28;50.71
12213;BME280;6169;44.158;22.788;2024-01-11T21:45:45;101362.06;;;-3.40;51.06
12213;BME280;6169;44.158;22.788;2024-01-11T21:50:49;101347.38;;;-3.25;50.75
12213;BME280;6169;44.158;22.788;2024-01-11T21:55:51;101332.56;;;-2.59;50.18
12213;BME280;6169;44.158;22.788;2024-01-11T22:00:53;101338.31;;;-3.03;51.87
12213;BME280;6169;44.158;22.788;2024-01-11T22:05:57;101356.72;;;-3.81;53.88
12213;BME280;6169;44.158;22.788;2024-01-11T22:10:59;101350.78;;;-3.63;52.78
12213;BME280;6169;44.158;22.788;2024-01-11T22:16:01;101358.22;;;-2.88;52.08
12213;BME280;6169;44.158;22.788;2024-01-11T22:21:07;101352.25;;;-3.49;53.31
12213;BME280;6169;44.158;22.788;2024-01-11T22:26:09;101378.44;;;-3.45;52.56
12213;BME280;6169;44.158;22.788;2024-01-11T22:31:11;101377.34;;;-3.73;53.35
12213;BME280;6169;44.158;22.788;2024-01-11T22:36:15;101380.63;;;-3.29;52.96
12213;BME280;6169;44.158;22.788;2024-01-11T22:41:17;101377.41;;;-3.23;52.64
12213;BME280;6169;44.158;22.788;2024-01-11T22:46:19;101374.75;;;-3.23;52.61
12213;BME280;6169;44.158;22.788;2024-01-11T22:51:22;101364.47;;;-3.27;52.85
12213;BME280;6169;44.158;22.788;2024-01-11T22:56:25;101339.50;;;-3.36;52.79
12213;BME280;6169;44.158;22.788;2024-01-11T23:01:28;101350.53;;;-2.61;51.59
12213;BME280;6169;44.158;22.788;2024-01-11T23:06:32;101330.66;;;-3.46;52.61
12213;BME280;6169;44.158;22.788;2024-01-11T23:11:35;101327.25;;;-3.58;53.33
12213;BME280;6169;44.158;22.788;2024-01-11T23:16:38;101316.69;;;-3.69;53.60
12213;BME280;6169;44.158;22.788;2024-01-11T23:21:41;101331.28;;;-3.23;52.03
12213;BME280;6169;44.158;22.788;2024-01-11T23:26:43;101327.69;;;-3.63;53.48
12213;BME280;6169;44.158;22.788;2024-01-11T23:31:45;101327.22;;;-3.68;54.19
12213;BME280;6169;44.158;22.788;2024-01-11T23:36:49;101319.69;;;-3.53;52.63
12213;BME280;6169;44.158;22.788;2024-01-11T23:41:51;101317.97;;;-3.64;53.34
12213;BME280;6169;44.158;22.788;2024-01-11T23:46:54;101326.25;;;-3.07;52.73
12213;BME280;6169;44.158;22.788;2024-01-11T23:51:57;101322.47;;;-3.24;53.66
12213;BME280;6169;44.158;22.788;2024-01-11T23:57:00;101326.31;;;-3.47;54.14
